Unalaska, AK (99685)

7:36 AM AKDT on September 01, 2015 (GMT -0800)
Dutch Harbor | | Change Station
CLOSE
Current Station
Airport
Location: Dutch Harbor,
Elevation: 13 ft
Nearby Weather Stations

Elev 13 ft 53.90 °N, 166.54 °W | Updated 40 minutes ago

Light Rain
Light Rain
62 °F
Feels Like 62 °F
N
8
Wind Variable Wind from SSE

Today
High -- | Low -- °F
--% Chance of Precip.
Yesterday
High -- | Low -- °F
Precip. -- in
8:15 AM 9:57 PM
Waning Gibbous, 88% visible
Pressure 29.99 in
Visibility 10.0 miles
Clouds Mostly Cloudy 2300 ft
Overcast 11000 ft
Dew Point 56 °F
Humidity 80%
Rainfall 0.01 in
Snow Depth Not available.
UV 0 out of 12
Pollen Not available.
Air Quality Not available.
Flu Activity Not available.
METAR PADU 011456Z 15007KT 10SM -RA BKN023 OVC110 17/13 A2997 RMK AO2 RAB1359 SLP153 MH P0000 60000 T01670133 58023
Pressure 29.99 in
Visibility 10.0 miles
Clouds Mostly Cloudy 2300 ft
Overcast 11000 ft
Dew Point 56 °F
Humidity 80%
Rainfall 0.01 in
Snow Depth Not available.
UV 0 out of 12
Pollen Not available.
Air Quality Not available.
Flu Activity Not available.
METAR PADU 011456Z 15007KT 10SM -RA BKN023 OVC110 17/13 A2997 RMK AO2 RAB1359 SLP153 MH P0000 60000 T01670133 58023

10-Day Weather Forecast

×

Almanac

Astronomy

Sep. 01, 2015 Rise Set
Actual Time
Civil Twilight
Nautical Twilight
Astronomical Twilight
Moon
Length of Visible Light
Length of Day
Tomorrow will be .
, % of the Moon is Illuminated

Today's Extremes

State Highs State Lows

Community

WunderPhotos

Upload Photos

1,851,523 photos uploaded!

WunderBlogs® & News

Nearby

Air Quality

  Air Quality AQ Index Pollutant
Not available.

Snow Depth

Station Depth Elevation

Earthquake Activity

City Distance Mag. Time & Date
Minimum magnitude displayed is 2.5.

Coastal Water Temperatures

Place Temperature

Stations

Nearby Weather Stations

Station Location Temp. Windchill Dew Point Humidity Wind Precip. Elev Updated Type